createdAt,value
2019-03-23T00:00:03.014Z,10.17
2019-03-23T00:01:13.860Z,10.17
2019-03-23T00:02:18.314Z,10.15
2019-03-23T00:03:23.234Z,10.15
2019-03-23T00:04:28.096Z,10.15
2019-03-23T00:05:32.620Z,10.14
2019-03-23T00:06:37.126Z,10.13
2019-03-23T00:07:41.899Z,10.12
2019-03-23T00:08:46.924Z,10.12
2019-03-23T00:09:51.639Z,10.11
2019-03-23T00:10:56.008Z,10.11
2019-03-23T00:12:00.741Z,10.10
2019-03-23T00:13:05.699Z,10.09
2019-03-23T00:14:10.497Z,10.06
2019-03-23T00:15:15.750Z,10.04
2019-03-23T00:16:20.268Z,10.04
2019-03-23T00:17:25.284Z,10.02
2019-03-23T00:18:29.655Z,10.00
2019-03-23T00:19:34.194Z,10.00
2019-03-23T00:20:38.875Z,9.98
2019-03-23T00:21:43.474Z,9.97
2019-03-23T00:22:47.912Z,9.97
2019-03-23T00:23:52.341Z,9.95
2019-03-23T00:24:56.947Z,9.94
2019-03-23T00:26:02.303Z,9.92
2019-03-23T00:27:06.753Z,9.91
2019-03-23T00:28:11.188Z,9.88
2019-03-23T00:29:15.871Z,9.87
2019-03-23T00:30:20.617Z,9.85
2019-03-23T00:31:24.977Z,9.85
2019-03-23T00:32:29.425Z,9.83
2019-03-23T00:33:34.104Z,9.82
2019-03-23T00:34:38.543Z,9.81
2019-03-23T00:35:43.297Z,9.79
2019-03-23T00:36:47.667Z,9.77
2019-03-23T00:37:52.134Z,9.76
2019-03-23T00:38:56.742Z,9.74
2019-03-23T00:40:01.421Z,9.73
2019-03-23T00:41:06.176Z,9.73
2019-03-23T00:42:11.040Z,9.71
2019-03-23T00:43:15.642Z,9.70
2019-03-23T00:44:20.499Z,9.68
2019-03-23T00:45:24.859Z,9.64
2019-03-23T00:46:29.609Z,9.60
2019-03-23T00:47:34.212Z,9.58
2019-03-23T00:48:39.225Z,9.55
2019-03-23T00:49:43.981Z,9.54
2019-03-23T00:50:48.849Z,9.53
2019-03-23T00:51:53.218Z,9.51
2019-03-23T00:52:57.824Z,9.48
2019-03-23T00:54:02.578Z,9.48
2019-03-23T00:55:07.635Z,9.48
2019-03-23T00:56:12.557Z,9.47
2019-03-23T00:57:16.927Z,9.46
2019-03-23T00:58:21.358Z,9.46
2019-03-23T00:59:25.714Z,9.44
2019-03-23T01:00:30.225Z,9.43
2019-03-23T01:01:35.325Z,9.43
2019-03-23T01:02:41.832Z,9.42
2019-03-23T01:03:47.241Z,9.41
2019-03-23T01:04:52.039Z,9.41
2019-03-23T01:05:56.476Z,9.38
2019-03-23T01:07:00.927Z,9.38
2019-03-23T01:08:05.538Z,9.37
2019-03-23T01:09:10.118Z,9.35
2019-03-23T01:10:14.911Z,9.33
2019-03-23T01:11:19.594Z,9.32
2019-03-23T01:12:24.015Z,9.31
2019-03-23T01:16:47.828Z,9.26
2019-03-23T01:17:52.494Z,9.25
2019-03-23T01:18:57.615Z,9.13
2019-03-23T01:20:02.400Z,9.10
2019-03-23T01:21:07.164Z,9.09
2019-03-23T01:22:12.071Z,9.09
2019-03-23T01:23:16.602Z,9.09
2019-03-23T01:24:21.375Z,9.09
2019-03-23T01:25:26.166Z,9.10
2019-03-23T01:26:31.052Z,9.09
2019-03-23T01:27:35.604Z,9.07
2019-03-23T01:28:40.373Z,9.06
2019-03-23T01:29:44.750Z,9.03
2019-03-23T01:30:49.817Z,9.01
2019-03-23T01:31:54.835Z,9.02
2019-03-23T01:32:59.570Z,9.01
2019-03-23T01:34:04.092Z,9.00
2019-03-23T01:35:09.402Z,9.01
2019-03-23T01:36:14.262Z,8.99
2019-03-23T01:37:19.039Z,8.97
2019-03-23T01:38:23.682Z,8.95
2019-03-23T01:39:29.050Z,8.95
2019-03-23T01:40:33.840Z,8.93
2019-03-23T01:41:38.218Z,8.92
2019-03-23T01:42:42.961Z,8.91
2019-03-23T01:43:47.446Z,8.89
2019-03-23T01:44:52.240Z,8.89
2019-03-23T01:45:56.999Z,8.89
2019-03-23T01:47:01.746Z,8.88
2019-03-23T01:48:07.066Z,8.87
2019-03-23T01:49:11.627Z,8.87
2019-03-23T01:50:16.155Z,8.86
2019-03-23T01:51:20.678Z,8.84
2019-03-23T01:52:25.493Z,8.83
2019-03-23T01:53:30.656Z,8.81
2019-03-23T01:54:35.106Z,8.82
2019-03-23T01:55:39.866Z,8.80
2019-03-23T01:56:44.592Z,8.80
2019-03-23T01:57:49.347Z,8.79
2019-03-23T01:58:53.820Z,8.78
2019-03-23T01:59:58.656Z,8.77
2019-03-23T02:01:03.177Z,8.76
2019-03-23T02:02:07.698Z,8.75
2019-03-23T02:03:12.318Z,8.74
2019-03-23T02:04:17.082Z,8.72
2019-03-23T02:05:21.770Z,8.70
2019-03-23T02:06:26.938Z,8.69
2019-03-23T02:07:31.580Z,8.71
2019-03-23T02:08:36.218Z,8.69
2019-03-23T02:09:40.581Z,8.68
2019-03-23T02:10:45.242Z,8.66
2019-03-23T02:11:49.927Z,8.63
2019-03-23T02:12:54.632Z,8.62
2019-03-23T02:13:59.070Z,8.62
2019-03-23T02:15:03.593Z,8.58
2019-03-23T02:16:08.101Z,8.57
2019-03-23T02:17:12.714Z,8.55
2019-03-23T02:18:17.165Z,8.54
2019-03-23T02:19:21.606Z,8.52
2019-03-23T02:20:26.046Z,8.49
2019-03-23T02:21:30.724Z,8.46
2019-03-23T02:22:35.416Z,8.46
2019-03-23T02:23:39.797Z,8.44
2019-03-23T02:24:44.162Z,8.44
2019-03-23T02:25:48.604Z,8.44
2019-03-23T02:26:53.076Z,8.43
2019-03-23T02:27:57.776Z,8.43
2019-03-23T02:29:02.179Z,8.43
2019-03-23T02:30:06.955Z,8.43
2019-03-23T02:31:11.966Z,8.41
2019-03-23T02:32:16.705Z,8.41
2019-03-23T02:33:21.286Z,8.41
2019-03-23T02:34:25.923Z,8.41
2019-03-23T02:35:30.414Z,8.41
2019-03-23T02:36:34.968Z,8.39
2019-03-23T02:37:39.812Z,8.41
2019-03-23T02:38:44.471Z,8.39
2019-03-23T02:39:48.916Z,8.38
2019-03-23T02:40:53.374Z,8.37
2019-03-23T02:41:58.114Z,8.35
2019-03-23T02:43:02.648Z,8.34
2019-03-23T02:44:07.168Z,8.34
2019-03-23T02:45:12.568Z,8.32
2019-03-23T02:46:16.947Z,8.31
2019-03-23T02:47:22.137Z,8.31
2019-03-23T02:48:26.674Z,8.30
2019-03-23T02:49:31.125Z,8.30
2019-03-23T02:50:35.849Z,8.30
2019-03-23T02:51:40.263Z,8.29
2019-03-23T02:52:44.630Z,8.29
2019-03-23T02:53:49.337Z,8.27
2019-03-23T02:54:54.104Z,8.27
2019-03-23T02:55:59.111Z,8.27
2019-03-23T02:57:03.725Z,8.25
2019-03-23T02:58:08.463Z,8.24
2019-03-23T02:59:12.977Z,8.24
2019-03-23T03:00:17.617Z,8.22
2019-03-23T03:01:22.309Z,8.21
2019-03-23T03:02:27.020Z,8.19
2019-03-23T03:03:31.720Z,8.19
2019-03-23T03:04:36.252Z,8.18
2019-03-23T03:05:40.701Z,8.17
2019-03-23T03:06:45.491Z,8.18
2019-03-23T03:07:50.179Z,8.17
2019-03-23T03:08:54.877Z,8.15
2019-03-23T03:09:59.398Z,8.14
2019-03-23T03:11:04.539Z,8.13
2019-03-23T03:12:08.977Z,8.12
2019-03-23T03:13:13.437Z,8.09
2019-03-23T03:14:17.797Z,8.10
2019-03-23T03:15:22.491Z,8.08
2019-03-23T03:16:26.929Z,8.07
2019-03-23T03:17:31.556Z,8.04
2019-03-23T03:18:36.005Z,8.04
2019-03-23T03:19:40.618Z,8.02
2019-03-23T03:20:45.230Z,8.01
2019-03-23T03:21:49.600Z,8.00
2019-03-23T03:22:54.367Z,8.00
2019-03-23T03:23:58.745Z,7.99
2019-03-23T03:25:03.427Z,7.97
2019-03-23T03:26:07.944Z,7.96
2019-03-23T03:27:12.378Z,7.95
2019-03-23T03:28:17.242Z,7.94
2019-03-23T03:29:21.625Z,7.92
2019-03-23T03:30:25.992Z,7.91
2019-03-23T03:31:30.383Z,7.90
2019-03-23T03:32:35.147Z,7.90
2019-03-23T03:33:39.747Z,7.89
2019-03-23T03:34:44.121Z,7.87
2019-03-23T03:35:48.665Z,7.84
2019-03-23T03:36:53.399Z,7.84
2019-03-23T03:37:58.310Z,7.83
2019-03-23T03:39:03.286Z,7.82
2019-03-23T03:40:08.048Z,7.79
2019-03-23T03:41:12.499Z,7.78
2019-03-23T03:42:16.961Z,7.77
2019-03-23T03:43:21.692Z,7.76
2019-03-23T03:44:26.549Z,7.75
2019-03-23T03:45:31.050Z,7.73
2019-03-23T03:46:35.569Z,7.73
2019-03-23T03:47:41.415Z,7.73
2019-03-23T03:48:46.118Z,7.72
2019-03-23T03:49:51.045Z,7.72
2019-03-23T03:50:56.128Z,7.71
2019-03-23T03:52:00.580Z,7.70
2019-03-23T03:53:05.158Z,7.70
2019-03-23T03:54:09.541Z,7.69
2019-03-23T03:55:14.001Z,7.69
2019-03-23T03:56:18.446Z,7.66
2019-03-23T03:57:23.133Z,7.66
2019-03-23T03:58:27.596Z,7.66
2019-03-23T03:59:32.427Z,7.65
2019-03-23T04:00:37.033Z,7.64
2019-03-23T04:01:41.474Z,7.64
2019-03-23T04:02:46.308Z,7.63
2019-03-23T04:03:50.753Z,7.60
2019-03-23T04:04:55.790Z,7.58
2019-03-23T04:06:00.554Z,7.56
2019-03-23T04:07:05.382Z,7.54
2019-03-23T04:08:11.880Z,7.54
2019-03-23T04:09:16.031Z,7.52
2019-03-23T04:10:20.480Z,7.48
2019-03-23T04:11:25.203Z,7.48
2019-03-23T04:12:29.642Z,7.47
2019-03-23T04:13:34.519Z,7.44
2019-03-23T04:14:38.909Z,7.45
2019-03-23T04:15:43.367Z,7.44
2019-03-23T04:16:48.114Z,7.43
2019-03-23T04:17:52.686Z,7.41
2019-03-23T04:18:57.072Z,7.40
2019-03-23T04:20:01.525Z,7.39
2019-03-23T04:21:06.509Z,7.38
2019-03-23T04:22:10.954Z,7.36
2019-03-23T04:23:15.356Z,7.36
2019-03-23T04:24:19.895Z,7.35
2019-03-23T04:25:24.270Z,7.34
2019-03-23T04:26:28.656Z,7.32
2019-03-23T04:27:33.441Z,7.31
2019-03-23T04:28:38.138Z,7.28
2019-03-23T04:29:42.597Z,7.27
2019-03-23T04:30:47.750Z,7.27
2019-03-23T04:31:52.182Z,7.26
2019-03-23T04:32:56.934Z,7.25
2019-03-23T04:34:01.722Z,7.23
2019-03-23T04:35:07.674Z,7.23
2019-03-23T04:36:12.110Z,7.21
2019-03-23T04:37:16.789Z,7.20
2019-03-23T04:38:22.960Z,7.19
2019-03-23T04:39:27.661Z,7.18
2019-03-23T04:40:32.019Z,7.15
2019-03-23T04:41:36.464Z,7.15
2019-03-23T04:42:40.828Z,7.13
2019-03-23T04:43:45.430Z,7.13
2019-03-23T04:44:49.883Z,7.12
2019-03-23T04:45:55.150Z,7.09
2019-03-23T04:46:59.760Z,7.08
2019-03-23T04:48:04.455Z,7.07
2019-03-23T04:49:08.903Z,7.06
2019-03-23T04:50:13.850Z,7.04
2019-03-23T04:51:18.687Z,7.02
2019-03-23T04:52:23.114Z,7.02
2019-03-23T04:53:27.979Z,6.98
2019-03-23T04:54:32.362Z,6.97
2019-03-23T04:55:37.047Z,6.96
2019-03-23T04:56:41.416Z,6.94
2019-03-23T04:57:45.855Z,6.93
2019-03-23T04:58:50.216Z,6.89
2019-03-23T04:59:54.666Z,6.88
2019-03-23T05:00:59.280Z,6.86
2019-03-23T05:02:03.851Z,6.84
2019-03-23T05:03:08.542Z,6.84
2019-03-23T05:04:13.598Z,6.81
2019-03-23T05:05:18.106Z,6.80
2019-03-23T05:06:22.558Z,6.78
2019-03-23T05:07:27.052Z,6.77
2019-03-23T05:08:33.659Z,6.76
2019-03-23T05:09:37.771Z,6.76
2019-03-23T05:10:42.216Z,6.74
2019-03-23T05:11:47.022Z,6.73
2019-03-23T05:12:51.706Z,6.71
2019-03-23T05:13:56.367Z,6.71
2019-03-23T05:15:00.836Z,6.72
2019-03-23T05:16:05.353Z,6.71
2019-03-23T05:17:09.805Z,6.70
2019-03-23T05:18:14.483Z,6.70
2019-03-23T05:19:19.175Z,6.69
2019-03-23T05:20:31.235Z,6.68
2019-03-23T05:21:35.605Z,6.68
2019-03-23T05:22:40.034Z,6.69
2019-03-23T05:23:45.865Z,6.68
2019-03-23T05:24:50.382Z,6.69
2019-03-23T05:25:54.752Z,6.71
2019-03-23T05:26:59.113Z,6.71
2019-03-23T05:28:03.632Z,6.71
2019-03-23T05:29:08.639Z,6.73
2019-03-23T05:30:13.188Z,6.73
2019-03-23T05:31:18.421Z,6.74
2019-03-23T05:32:23.617Z,6.73
2019-03-23T05:33:28.057Z,6.74
2019-03-23T05:34:32.446Z,6.74
2019-03-23T05:35:36.944Z,6.74
2019-03-23T05:36:41.467Z,6.74
2019-03-23T05:37:46.338Z,6.76
2019-03-23T05:38:51.195Z,6.74
2019-03-23T05:39:55.659Z,6.74
2019-03-23T05:41:00.363Z,6.74
2019-03-23T05:42:05.174Z,6.74
2019-03-23T05:44:35.366Z,6.77
2019-03-23T05:45:40.083Z,6.75
2019-03-23T05:46:44.454Z,6.74
2019-03-23T05:47:48.919Z,6.76
2019-03-23T05:48:53.925Z,6.75
2019-03-23T05:49:58.401Z,6.77
2019-03-23T05:51:02.801Z,6.77
2019-03-23T05:52:07.385Z,6.78
2019-03-23T05:53:11.895Z,6.80
2019-03-23T05:54:16.266Z,6.82
2019-03-23T05:55:20.715Z,6.81
2019-03-23T05:56:25.651Z,6.82
2019-03-23T05:57:30.084Z,6.83
2019-03-23T05:58:34.840Z,6.81
2019-03-23T05:59:39.449Z,6.80
2019-03-23T06:00:43.891Z,6.81
2019-03-23T06:01:48.259Z,6.80
2019-03-23T06:02:52.694Z,6.82
2019-03-23T06:03:57.311Z,6.82
2019-03-23T06:05:01.760Z,6.83
2019-03-23T06:06:06.274Z,6.84
2019-03-23T06:07:10.649Z,6.85
2019-03-23T06:08:15.668Z,6.87
2019-03-23T06:09:20.294Z,6.88
2019-03-23T06:10:24.917Z,6.90
2019-03-23T06:11:29.538Z,6.92
2019-03-23T06:12:34.973Z,6.94
2019-03-23T06:13:39.431Z,6.95
2019-03-23T06:14:43.912Z,6.97
2019-03-23T06:15:48.311Z,6.99
2019-03-23T06:16:52.990Z,7.00
2019-03-23T06:17:57.358Z,7.01
2019-03-23T06:19:01.811Z,7.02
2019-03-23T06:20:06.919Z,7.04
2019-03-23T06:21:11.374Z,7.05
2019-03-23T06:22:16.243Z,7.07
2019-03-23T06:23:20.688Z,7.09
2019-03-23T06:24:25.309Z,7.10
2019-03-23T06:25:29.931Z,7.12
2019-03-23T06:26:34.707Z,7.16
2019-03-23T06:27:39.229Z,7.19
2019-03-23T06:28:43.594Z,7.24
2019-03-23T06:29:47.963Z,7.28
2019-03-23T06:30:52.412Z,7.35
2019-03-23T06:31:56.938Z,7.44
2019-03-23T06:33:01.680Z,7.52
2019-03-23T06:34:06.544Z,7.60
2019-03-23T06:35:11.425Z,7.68
2019-03-23T06:36:16.216Z,7.76
2019-03-23T06:37:20.659Z,7.83
2019-03-23T06:38:25.424Z,7.90
2019-03-23T06:39:29.931Z,7.97
2019-03-23T06:40:34.736Z,8.03
2019-03-23T06:41:39.294Z,8.09
2019-03-23T06:42:43.751Z,8.14
2019-03-23T06:43:49.030Z,8.18
2019-03-23T06:44:53.405Z,8.22
2019-03-23T06:45:58.152Z,8.26
2019-03-23T06:47:03.014Z,8.29
2019-03-23T06:48:07.610Z,8.34
2019-03-23T06:49:12.570Z,8.35
2019-03-23T06:50:17.116Z,8.36
2019-03-23T06:51:21.824Z,8.36
2019-03-23T06:52:26.643Z,8.37
2019-03-23T06:53:31.102Z,8.36
2019-03-23T06:54:35.567Z,8.38
2019-03-23T06:55:40.227Z,8.41
2019-03-23T06:56:44.924Z,8.42
2019-03-23T06:57:49.442Z,8.41
2019-03-23T06:58:54.483Z,8.42
2019-03-23T06:59:59.244Z,8.41
2019-03-23T07:01:03.810Z,8.43
2019-03-23T07:02:08.306Z,8.41
2019-03-23T07:03:13.133Z,8.40
2019-03-23T07:04:17.705Z,8.39
2019-03-23T07:05:22.252Z,8.37
2019-03-23T07:06:27.050Z,8.36
2019-03-23T07:07:31.420Z,8.34
2019-03-23T07:08:36.036Z,8.31
2019-03-23T07:09:40.483Z,8.29
2019-03-23T07:10:45.012Z,8.29
2019-03-23T07:11:49.712Z,8.26
2019-03-23T07:12:54.151Z,8.26
2019-03-23T07:13:58.518Z,8.25
2019-03-23T07:15:03.052Z,8.23
2019-03-23T07:16:07.752Z,8.22
2019-03-23T07:17:12.296Z,8.21
2019-03-23T07:18:17.363Z,8.21
2019-03-23T07:19:22.071Z,8.22
2019-03-23T07:20:26.583Z,8.22
2019-03-23T07:21:31.290Z,8.23
2019-03-23T07:22:36.074Z,8.25
2019-03-23T07:23:40.611Z,8.28
2019-03-23T07:24:45.229Z,8.30
2019-03-23T07:25:50.023Z,8.34
2019-03-23T07:26:54.558Z,8.36
2019-03-23T07:27:59.376Z,8.37
2019-03-23T07:29:04.296Z,8.39
2019-03-23T07:30:10.818Z,8.40
2019-03-23T07:31:15.558Z,8.41
2019-03-23T07:32:20.092Z,8.43
2019-03-23T07:33:24.615Z,8.46
2019-03-23T07:34:29.393Z,8.48
2019-03-23T07:35:34.636Z,8.48
2019-03-23T07:36:39.424Z,8.50
2019-03-23T07:37:43.947Z,8.51
2019-03-23T07:38:48.687Z,8.51
2019-03-23T07:39:53.064Z,8.51
2019-03-23T07:40:57.804Z,8.52
2019-03-23T07:42:02.665Z,8.54
2019-03-23T07:43:07.029Z,8.56
2019-03-23T07:44:11.480Z,8.58
2019-03-23T07:45:16.697Z,8.60
2019-03-23T07:46:21.644Z,8.62
2019-03-23T07:47:26.160Z,8.66
2019-03-23T07:48:30.603Z,8.69
2019-03-23T07:49:35.301Z,8.70
2019-03-23T07:50:39.753Z,8.73
2019-03-23T07:51:44.194Z,8.77
2019-03-23T07:52:48.566Z,8.79
2019-03-23T07:53:53.246Z,8.79
2019-03-23T07:55:00.576Z,8.83
2019-03-23T07:56:05.204Z,8.85
2019-03-23T07:57:09.653Z,8.88
2019-03-23T07:58:14.022Z,8.94
2019-03-23T07:59:18.392Z,8.97
2019-03-23T08:00:23.015Z,8.99
2019-03-23T08:01:27.397Z,9.02
2019-03-23T08:02:32.012Z,9.04
2019-03-23T08:03:36.458Z,9.09
2019-03-23T08:04:41.280Z,9.13
2019-03-23T08:05:45.613Z,9.14
2019-03-23T08:06:50.224Z,9.16
2019-03-23T08:07:55.163Z,9.20
2019-03-23T08:08:59.777Z,9.25
2019-03-23T08:10:04.226Z,9.30
2019-03-23T08:11:08.846Z,9.35
2019-03-23T08:12:13.291Z,9.40
2019-03-23T08:13:18.044Z,9.45
2019-03-23T08:14:22.685Z,9.49
2019-03-23T08:15:27.381Z,9.54
2019-03-23T08:16:31.841Z,9.58
2019-03-23T08:17:36.987Z,9.64
2019-03-23T08:18:42.314Z,9.71
2019-03-23T08:19:47.145Z,9.75
2019-03-23T08:20:51.594Z,9.81
2019-03-23T08:21:56.471Z,9.85
2019-03-23T08:23:01.067Z,9.90
2019-03-23T08:24:05.761Z,9.94
2019-03-23T08:25:10.221Z,9.81
2019-03-23T08:26:14.693Z,10.03
2019-03-23T08:27:19.394Z,10.09
2019-03-23T08:28:23.899Z,10.13
2019-03-23T08:29:28.775Z,10.17
2019-03-23T08:30:33.270Z,10.22
2019-03-23T08:31:38.207Z,10.27
2019-03-23T08:32:42.880Z,10.31
2019-03-23T08:33:47.361Z,10.37
2019-03-23T08:34:51.856Z,10.42
2019-03-23T08:35:56.393Z,10.47
2019-03-23T08:37:02.147Z,10.51
2019-03-23T08:38:06.701Z,10.55
2019-03-23T08:39:11.161Z,10.59
2019-03-23T08:40:15.686Z,10.65
2019-03-23T08:41:20.306Z,10.69
2019-03-23T08:42:25.317Z,10.75
2019-03-23T08:43:29.952Z,10.79
2019-03-23T08:44:34.477Z,10.85
2019-03-23T08:45:38.975Z,10.90
2019-03-23T08:46:43.448Z,10.95
2019-03-23T08:47:47.975Z,10.97
2019-03-23T08:48:52.534Z,11.01
2019-03-23T08:49:59.601Z,11.06
2019-03-23T08:51:03.562Z,11.09
2019-03-23T08:52:08.413Z,11.14
2019-03-23T08:53:12.788Z,11.18
2019-03-23T08:54:17.238Z,11.23
2019-03-23T08:55:22.132Z,11.28
2019-03-23T08:56:26.727Z,11.34
2019-03-23T08:57:31.385Z,11.40
2019-03-23T08:58:33.787Z,11.45
2019-03-23T08:59:38.158Z,11.51
2019-03-23T09:00:42.535Z,11.56
2019-03-23T09:01:46.979Z,11.61
2019-03-23T09:02:51.946Z,11.65
2019-03-23T09:03:56.672Z,11.70
2019-03-23T09:05:01.948Z,11.76
2019-03-23T09:06:06.708Z,11.82
2019-03-23T09:07:11.614Z,11.88
2019-03-23T09:08:18.462Z,11.94
2019-03-23T09:09:22.233Z,11.99
2019-03-23T09:10:27.021Z,12.05
2019-03-23T09:11:31.638Z,12.11
2019-03-23T09:12:36.422Z,12.17
2019-03-23T09:13:41.085Z,12.22
2019-03-23T09:14:45.415Z,12.26
2019-03-23T09:15:49.874Z,12.31
2019-03-23T09:16:54.500Z,12.36
2019-03-23T09:17:58.891Z,12.40
2019-03-23T09:19:03.420Z,12.45
2019-03-23T09:20:09.024Z,12.50
2019-03-23T09:21:13.795Z,12.54
2019-03-23T09:22:18.819Z,12.58
2019-03-23T09:23:23.672Z,12.65
2019-03-23T09:24:28.134Z,12.70
2019-03-23T09:25:32.590Z,12.74
2019-03-23T09:26:37.053Z,12.80
2019-03-23T09:27:41.780Z,12.83
2019-03-23T09:28:46.512Z,12.88
2019-03-23T09:29:51.304Z,12.91
2019-03-23T09:30:55.762Z,12.96
2019-03-23T09:32:00.509Z,13.02
2019-03-23T09:33:05.018Z,13.06
2019-03-23T09:34:09.473Z,13.12
2019-03-23T09:35:14.044Z,13.16
2019-03-23T09:36:23.059Z,13.21
2019-03-23T09:37:25.402Z,13.27
2019-03-23T09:38:30.304Z,13.31
2019-03-23T09:39:35.229Z,13.38
2019-03-23T09:40:40.060Z,13.43
2019-03-23T09:41:44.813Z,13.48
2019-03-23T09:42:49.350Z,13.54
2019-03-23T09:43:53.855Z,13.60
2019-03-23T09:44:58.392Z,13.66
2019-03-23T09:46:05.926Z,13.70
2019-03-23T09:47:10.712Z,13.78
2019-03-23T09:48:15.176Z,13.84
2019-03-23T09:49:22.015Z,13.90
2019-03-23T09:50:25.964Z,13.94
2019-03-23T09:51:31.114Z,14.00
2019-03-23T09:52:35.944Z,13.94
2019-03-23T09:53:40.627Z,14.10
2019-03-23T09:54:45.485Z,14.16
2019-03-23T09:55:50.173Z,14.22
2019-03-23T09:56:55.245Z,14.27
2019-03-23T09:58:00.112Z,14.34
2019-03-23T09:59:04.653Z,14.38
2019-03-23T10:00:09.536Z,14.44
2019-03-23T10:01:14.157Z,14.49
2019-03-23T10:02:18.566Z,14.53
2019-03-23T10:03:23.085Z,14.60
2019-03-23T10:04:28.824Z,14.65
2019-03-23T10:05:33.514Z,14.70
2019-03-23T10:06:38.140Z,14.74
2019-03-23T10:07:42.513Z,14.80
2019-03-23T10:08:46.904Z,14.85
2019-03-23T10:09:51.281Z,14.91
2019-03-23T10:10:55.655Z,14.96
2019-03-23T10:12:00.430Z,15.00
2019-03-23T10:13:05.459Z,15.04
2019-03-23T10:14:10.022Z,15.09
2019-03-23T10:15:14.614Z,15.14
2019-03-23T10:16:19.082Z,15.18
2019-03-23T10:17:23.643Z,15.25
2019-03-23T10:18:28.180Z,15.30
2019-03-23T10:19:32.885Z,15.35
2019-03-23T10:20:37.340Z,15.40
2019-03-23T10:21:41.796Z,15.44
2019-03-23T10:22:46.316Z,15.48
2019-03-23T10:23:51.141Z,15.52
2019-03-23T10:24:55.949Z,15.57
2019-03-23T10:26:01.616Z,15.61
2019-03-23T10:27:06.489Z,15.66
2019-03-23T10:28:11.011Z,15.71
2019-03-23T10:29:18.809Z,15.75
2019-03-23T10:30:24.612Z,15.81
2019-03-23T10:31:29.765Z,15.86
2019-03-23T10:32:34.687Z,15.91
2019-03-23T10:33:39.081Z,15.96
2019-03-23T10:34:43.594Z,16.00
2019-03-23T10:35:48.406Z,16.05
2019-03-23T10:36:52.821Z,16.12
2019-03-23T10:37:57.472Z,16.20
2019-03-23T10:39:01.916Z,16.23
2019-03-23T10:40:07.963Z,16.26
2019-03-23T10:41:12.647Z,16.30
2019-03-23T10:42:17.859Z,16.33
2019-03-23T10:43:22.252Z,16.37
2019-03-23T10:44:27.032Z,16.41
2019-03-23T10:45:31.591Z,16.46
2019-03-23T10:46:36.444Z,16.51
2019-03-23T10:47:41.546Z,16.56
2019-03-23T10:48:46.796Z,16.68
2019-03-23T10:49:51.210Z,16.71
2019-03-23T10:50:55.684Z,16.72
2019-03-23T10:52:00.065Z,16.76
2019-03-23T10:53:04.440Z,16.79
2019-03-23T10:54:08.830Z,16.82
2019-03-23T10:55:13.370Z,16.86
2019-03-23T10:56:18.139Z,16.91
2019-03-23T10:57:22.597Z,16.95
2019-03-23T10:58:27.969Z,16.98
2019-03-23T10:59:32.437Z,17.05
2019-03-23T11:00:36.893Z,17.08
2019-03-23T11:01:41.908Z,17.14
2019-03-23T11:02:46.724Z,17.18
2019-03-23T11:03:51.194Z,17.22
2019-03-23T11:04:55.838Z,17.23
2019-03-23T11:06:03.024Z,17.25
2019-03-23T11:07:07.480Z,17.29
2019-03-23T11:08:12.139Z,17.36
2019-03-23T11:09:16.874Z,17.42
2019-03-23T11:10:21.596Z,17.45
2019-03-23T11:11:26.242Z,17.46
2019-03-23T11:12:30.990Z,17.61
2019-03-23T11:13:35.402Z,17.62
2019-03-23T11:14:40.134Z,17.61
2019-03-23T11:15:44.603Z,17.62
2019-03-23T11:16:49.096Z,17.64
2019-03-23T11:17:54.064Z,17.70
2019-03-23T11:18:58.476Z,17.74
2019-03-23T11:20:03.360Z,17.79
2019-03-23T11:21:07.946Z,17.81
2019-03-23T11:22:12.754Z,17.83
2019-03-23T11:23:17.231Z,17.92
2019-03-23T11:24:22.016Z,17.92
2019-03-23T11:25:26.579Z,17.97
2019-03-23T11:26:31.501Z,18.00
2019-03-23T11:27:36.220Z,18.01
2019-03-23T11:28:41.395Z,18.03
2019-03-23T11:29:46.671Z,18.10
2019-03-23T11:30:51.478Z,18.19
2019-03-23T11:31:55.915Z,18.24
2019-03-23T11:33:00.447Z,18.26
2019-03-23T11:34:05.425Z,18.26
2019-03-23T11:35:10.838Z,18.37
2019-03-23T11:36:15.513Z,18.32
2019-03-23T11:37:20.469Z,18.34
2019-03-23T11:38:24.875Z,18.37
2019-03-23T11:39:29.282Z,18.44
2019-03-23T11:40:34.260Z,18.45
2019-03-23T11:41:39.036Z,18.58
2019-03-23T11:42:49.768Z,18.55
2019-03-23T11:43:49.815Z,18.55
2019-03-23T11:44:54.374Z,18.60
2019-03-23T11:45:59.087Z,18.64
2019-03-23T11:47:03.464Z,18.62
2019-03-23T11:48:07.888Z,18.64
2019-03-23T11:49:12.721Z,18.71
2019-03-23T11:50:17.425Z,18.67
2019-03-23T11:51:22.087Z,18.68
2019-03-23T11:52:26.545Z,18.76
2019-03-23T11:53:30.934Z,18.84
2019-03-23T11:54:35.647Z,18.82
2019-03-23T11:55:40.614Z,18.86
2019-03-23T11:56:45.151Z,18.90
2019-03-23T11:57:49.907Z,18.88
2019-03-23T11:58:54.365Z,18.92
2019-03-23T11:59:58.860Z,18.95
2019-03-23T12:01:03.776Z,19.09
2019-03-23T12:02:08.157Z,18.99
2019-03-23T12:03:12.855Z,18.98
2019-03-23T12:04:17.385Z,19.02
2019-03-23T12:05:21.777Z,19.02
2019-03-23T12:06:26.184Z,19.04
2019-03-23T12:07:30.965Z,19.12
2019-03-23T12:08:35.345Z,19.19
2019-03-23T12:09:39.798Z,19.16
2019-03-23T12:10:44.326Z,19.16
2019-03-23T12:11:48.963Z,19.16
2019-03-23T12:12:53.510Z,19.18
2019-03-23T12:13:58.402Z,19.22
2019-03-23T12:15:02.961Z,19.24
2019-03-23T12:16:07.412Z,19.28
2019-03-23T12:17:12.108Z,19.30
2019-03-23T12:18:16.818Z,19.32
2019-03-23T12:19:21.448Z,19.34
2019-03-23T12:20:25.844Z,19.37
2019-03-23T12:21:30.386Z,19.39
2019-03-23T12:22:35.271Z,19.46
2019-03-23T12:23:39.739Z,19.47
2019-03-23T12:24:44.440Z,19.54
2019-03-23T12:25:49.062Z,19.54
2019-03-23T12:26:53.590Z,19.52
2019-03-23T12:27:58.560Z,19.52
2019-03-23T12:29:03.012Z,19.53
2019-03-23T12:30:08.391Z,19.57
2019-03-23T12:31:12.781Z,19.65
2019-03-23T12:32:17.731Z,19.62
2019-03-23T12:33:22.180Z,19.61
2019-03-23T12:34:26.802Z,19.71
2019-03-23T12:35:32.062Z,19.69
2019-03-23T12:36:36.587Z,19.65
2019-03-23T12:37:41.528Z,19.66
2019-03-23T12:38:45.894Z,19.62
2019-03-23T12:39:50.791Z,19.77
2019-03-23T12:40:55.794Z,19.73
2019-03-23T12:42:00.603Z,19.72
2019-03-23T12:43:05.173Z,19.73
2019-03-23T12:44:09.693Z,19.84
2019-03-23T12:45:14.343Z,19.78
2019-03-23T12:46:19.068Z,19.76
2019-03-23T12:47:23.778Z,19.77
2019-03-23T12:48:28.414Z,19.83
2019-03-23T12:49:33.037Z,19.85
2019-03-23T12:50:37.685Z,19.86
2019-03-23T12:51:42.209Z,19.90
2019-03-23T12:52:47.007Z,19.92
2019-03-23T12:53:51.643Z,19.96
2019-03-23T12:54:56.786Z,19.97
2019-03-23T12:56:02.876Z,19.98
2019-03-23T12:57:07.329Z,20.01
2019-03-23T12:58:12.285Z,20.03
2019-03-23T12:59:16.722Z,20.08
2019-03-23T13:00:21.427Z,20.12
2019-03-23T13:01:26.327Z,20.16
2019-03-23T13:02:30.954Z,20.19
2019-03-23T13:03:35.910Z,20.25
2019-03-23T13:04:40.527Z,20.25
2019-03-23T13:05:45.345Z,20.18
2019-03-23T13:06:49.863Z,20.15
2019-03-23T13:07:54.892Z,20.25
2019-03-23T13:08:59.273Z,20.28
2019-03-23T13:10:04.011Z,20.31
2019-03-23T13:11:08.730Z,20.25
2019-03-23T13:12:13.367Z,20.19
2019-03-23T13:13:17.817Z,20.18
2019-03-23T13:14:22.177Z,20.19
2019-03-23T13:15:26.833Z,20.23
2019-03-23T13:16:31.765Z,20.25
2019-03-23T13:17:36.235Z,20.26
2019-03-23T13:18:40.622Z,20.27
2019-03-23T13:19:44.987Z,20.29
2019-03-23T13:20:50.162Z,20.33
2019-03-23T13:21:54.624Z,20.34
2019-03-23T13:22:59.220Z,20.47
2019-03-23T13:24:03.698Z,20.40
2019-03-23T13:25:08.916Z,20.42
2019-03-23T13:26:13.629Z,20.39
2019-03-23T13:27:18.050Z,20.39
2019-03-23T13:28:22.669Z,20.41
2019-03-23T13:29:27.283Z,20.44
2019-03-23T13:30:31.763Z,20.49
2019-03-23T13:31:36.288Z,20.52
2019-03-23T13:32:40.830Z,20.58
2019-03-23T13:33:45.443Z,20.59
2019-03-23T13:34:50.064Z,20.60
2019-03-23T13:35:54.515Z,20.56
2019-03-23T13:36:59.145Z,20.59
2019-03-23T13:38:03.669Z,20.59
2019-03-23T13:39:08.129Z,20.58
2019-03-23T13:40:12.962Z,20.69
2019-03-23T13:41:17.445Z,20.65
2019-03-23T13:42:21.898Z,20.59
2019-03-23T13:43:26.273Z,20.60
2019-03-23T13:44:30.676Z,20.65
2019-03-23T13:45:42.544Z,20.65
2019-03-23T13:46:41.678Z,20.69
2019-03-23T13:47:46.212Z,20.64
2019-03-23T13:48:51.079Z,20.69
2019-03-23T13:49:55.693Z,20.66
2019-03-23T13:51:00.393Z,20.66
2019-03-23T13:52:04.945Z,20.67
2019-03-23T13:53:09.336Z,20.79
2019-03-23T13:54:14.025Z,20.73
2019-03-23T13:55:28.662Z,20.71
2019-03-23T13:56:33.397Z,20.70
2019-03-23T13:57:37.778Z,20.73
2019-03-23T13:58:42.151Z,20.71
2019-03-23T13:59:46.538Z,20.72
2019-03-23T14:00:50.918Z,20.77
2019-03-23T14:01:55.568Z,20.76
2019-03-23T14:03:00.018Z,20.78
2019-03-23T14:04:04.485Z,20.80
2019-03-23T14:05:16.140Z,20.79
2019-03-23T14:06:16.089Z,20.84
2019-03-23T14:07:20.638Z,20.82
2019-03-23T14:08:25.029Z,20.80
2019-03-23T14:09:29.799Z,20.87
2019-03-23T14:10:34.331Z,20.91
2019-03-23T14:11:38.773Z,20.86
2019-03-23T14:12:43.386Z,20.89
2019-03-23T14:13:47.762Z,20.86